createdAt,value
2019-05-29T00:00:10.196Z,14.63
2019-05-29T00:02:37.132Z,14.42
2019-05-29T00:05:05.932Z,14.32
2019-05-29T00:07:32.987Z,14.25
2019-05-29T00:09:59.690Z,14.18
2019-05-29T00:12:26.401Z,14.41
2019-05-29T00:14:53.397Z,14.59
2019-05-29T00:17:20.112Z,14.72
2019-05-29T00:19:46.804Z,14.82
2019-05-29T00:22:14.510Z,15.01
2019-05-29T00:24:41.423Z,15.06
2019-05-29T00:27:08.171Z,15.06
2019-05-29T00:29:36.870Z,15.04
2019-05-29T00:32:03.595Z,15.08
2019-05-29T00:34:30.283Z,15.15
2019-05-29T00:36:57.031Z,15.04
2019-05-29T00:39:23.741Z,15.02
2019-05-29T00:41:50.484Z,15.03
2019-05-29T00:44:18.644Z,15.00
2019-05-29T00:47:05.693Z,15.01
2019-05-29T00:49:32.402Z,14.88
2019-05-29T00:51:59.213Z,14.70
2019-05-29T00:54:25.925Z,14.61
2019-05-29T00:56:52.631Z,14.70
2019-05-29T00:59:19.341Z,14.76
2019-05-29T01:01:46.324Z,14.69
2019-05-29T01:04:13.608Z,14.78
2019-05-29T01:06:40.657Z,14.71
2019-05-29T01:09:07.406Z,14.66
2019-05-29T01:11:34.113Z,14.62
2019-05-29T01:14:00.871Z,14.39
2019-05-29T01:16:27.599Z,14.17
2019-05-29T01:18:56.431Z,14.08
2019-05-29T01:21:23.165Z,14.01
2019-05-29T01:23:50.505Z,14.01
2019-05-29T01:26:17.311Z,14.27
2019-05-29T01:28:44.239Z,14.39
2019-05-29T01:31:10.981Z,14.51
2019-05-29T01:33:37.713Z,14.56
2019-05-29T01:36:04.754Z,14.50
2019-05-29T01:38:31.486Z,14.19
2019-05-29T01:40:58.204Z,14.05
2019-05-29T01:43:25.279Z,14.09
2019-05-29T01:45:52.003Z,14.13
2019-05-29T01:48:19.579Z,13.90
2019-05-29T01:50:46.390Z,13.97
2019-05-29T01:53:13.469Z,14.14
2019-05-29T01:55:40.200Z,14.02
2019-05-29T01:58:07.659Z,14.08
2019-05-29T02:00:34.380Z,14.23
2019-05-29T02:03:01.143Z,14.28
2019-05-29T02:05:28.273Z,14.43
2019-05-29T02:07:55.343Z,14.43
2019-05-29T02:10:22.240Z,14.29
2019-05-29T02:12:49.182Z,14.36
2019-05-29T02:15:29.536Z,14.47
2019-05-29T02:17:44.556Z,14.21
2019-05-29T02:20:11.399Z,13.98
2019-05-29T02:22:38.412Z,13.87
2019-05-29T02:25:05.283Z,13.79
2019-05-29T02:27:32.022Z,13.79
2019-05-29T02:29:58.803Z,13.83
2019-05-29T02:32:25.868Z,13.80
2019-05-29T02:34:52.711Z,13.74
2019-05-29T02:37:20.152Z,13.67
2019-05-29T02:39:46.939Z,13.75
2019-05-29T02:42:13.642Z,13.99
2019-05-29T02:44:40.342Z,14.07
2019-05-29T02:47:07.335Z,14.21
2019-05-29T02:49:34.042Z,14.26
2019-05-29T02:52:00.768Z,14.12
2019-05-29T02:54:29.429Z,14.18
2019-05-29T02:56:56.226Z,14.31
2019-05-29T02:59:23.630Z,14.09
2019-05-29T03:01:51.582Z,14.00
2019-05-29T03:04:18.285Z,13.89
2019-05-29T03:06:44.988Z,13.97
2019-05-29T03:09:11.705Z,14.11
2019-05-29T03:11:38.415Z,14.15
2019-05-29T03:14:05.137Z,14.22
2019-05-29T03:16:32.828Z,14.23
2019-05-29T03:19:01.694Z,13.99
2019-05-29T03:21:28.902Z,14.02
2019-05-29T03:23:57.028Z,14.06
2019-05-29T03:26:26.444Z,14.13
2019-05-29T03:28:52.352Z,14.23
2019-05-29T03:31:19.082Z,14.23
2019-05-29T03:33:49.762Z,14.27
2019-05-29T03:36:14.461Z,14.23
2019-05-29T03:38:41.147Z,14.18
2019-05-29T03:41:07.859Z,13.90
2019-05-29T03:43:36.094Z,13.79
2019-05-29T03:46:03.308Z,13.87
2019-05-29T03:48:30.559Z,14.05
2019-05-29T03:50:58.594Z,14.08
2019-05-29T03:53:26.885Z,13.93
2019-05-29T03:55:53.919Z,13.81
2019-05-29T03:58:20.626Z,13.76
2019-05-29T04:00:48.857Z,13.84
2019-05-29T04:03:16.249Z,13.71
2019-05-29T04:05:43.007Z,13.55
2019-05-29T04:08:10.063Z,13.59
2019-05-29T04:10:37.921Z,13.59
2019-05-29T04:13:07.554Z,13.79
2019-05-29T04:15:36.641Z,13.81
2019-05-29T04:18:04.127Z,13.73
2019-05-29T04:20:33.595Z,13.68
2019-05-29T04:23:00.310Z,13.60
2019-05-29T04:25:31.305Z,13.67
2019-05-29T04:27:55.665Z,13.93
2019-05-29T04:30:22.402Z,13.86
2019-05-29T04:32:49.118Z,13.65
2019-05-29T04:35:15.852Z,13.84
2019-05-29T04:37:42.562Z,13.93
2019-05-29T04:40:09.290Z,13.99
2019-05-29T04:42:37.644Z,14.03
2019-05-29T04:45:04.843Z,14.03
2019-05-29T04:47:33.140Z,14.11
2019-05-29T04:50:00.096Z,14.04
2019-05-29T04:52:26.821Z,14.16
2019-05-29T04:54:53.527Z,14.11
2019-05-29T04:57:20.249Z,13.99
2019-05-29T04:59:50.263Z,14.09
2019-05-29T05:02:16.959Z,14.03
2019-05-29T05:04:43.685Z,14.15
2019-05-29T05:07:10.385Z,13.89
2019-05-29T05:09:37.572Z,14.00
2019-05-29T05:12:04.580Z,14.16
2019-05-29T05:14:31.574Z,14.21
2019-05-29T05:16:58.503Z,14.28
2019-05-29T05:19:25.222Z,14.19
2019-05-29T05:21:51.927Z,14.03
2019-05-29T05:24:18.650Z,13.98
2019-05-29T05:26:45.383Z,14.10
2019-05-29T05:29:12.249Z,14.21
2019-05-29T05:31:40.657Z,14.27
2019-05-29T05:34:08.122Z,14.36
2019-05-29T05:36:38.885Z,14.16
2019-05-29T05:39:06.216Z,14.09
2019-05-29T05:41:33.069Z,14.12
2019-05-29T05:44:00.149Z,14.27
2019-05-29T05:46:26.883Z,14.31
2019-05-29T05:48:53.708Z,14.17
2019-05-29T05:51:20.426Z,14.10
2019-05-29T05:53:47.270Z,14.26
2019-05-29T05:56:14.107Z,14.25
2019-05-29T05:58:42.282Z,14.29
2019-05-29T06:01:09.371Z,14.39
2019-05-29T06:03:36.190Z,14.34
2019-05-29T06:06:02.968Z,14.34
2019-05-29T06:08:29.655Z,14.31
2019-05-29T06:10:56.503Z,14.46
2019-05-29T06:13:23.215Z,14.44
2019-05-29T06:15:49.961Z,14.40
2019-05-29T06:18:21.589Z,14.60
2019-05-29T06:20:45.696Z,14.64
2019-05-29T06:23:12.408Z,14.64
2019-05-29T06:25:40.707Z,14.77
2019-05-29T06:28:08.188Z,14.84
2019-05-29T06:30:36.621Z,14.71
2019-05-29T06:33:03.672Z,14.82
2019-05-29T06:35:30.412Z,14.84
2019-05-29T06:37:57.162Z,14.86
2019-05-29T06:40:30.978Z,14.86
2019-05-29T06:42:57.771Z,14.96
2019-05-29T06:45:29.995Z,15.05
2019-05-29T06:47:56.750Z,15.22
2019-05-29T06:50:23.471Z,15.15
2019-05-29T06:52:50.305Z,15.08
2019-05-29T06:55:17.027Z,15.13
2019-05-29T06:57:44.531Z,15.05
2019-05-29T07:00:11.228Z,15.22
2019-05-29T07:02:38.596Z,15.36
2019-05-29T07:05:05.962Z,15.36
2019-05-29T07:07:32.653Z,15.32
2019-05-29T07:09:59.381Z,15.18
2019-05-29T07:12:26.231Z,15.29
2019-05-29T07:14:52.934Z,15.30
2019-05-29T07:17:22.064Z,15.30
2019-05-29T07:20:00.726Z,15.18
2019-05-29T07:22:17.428Z,15.42
2019-05-29T07:24:45.029Z,15.49
2019-05-29T07:27:13.629Z,15.62
2019-05-29T07:29:41.166Z,15.33
2019-05-29T07:32:08.158Z,15.50
2019-05-29T07:34:49.648Z,15.61
2019-05-29T07:37:03.820Z,15.64
2019-05-29T07:39:30.624Z,15.57
2019-05-29T07:41:57.395Z,15.79
2019-05-29T07:44:24.103Z,15.97
2019-05-29T07:46:50.817Z,15.61
2019-05-29T07:49:17.566Z,15.42
2019-05-29T07:51:45.047Z,15.46
2019-05-29T07:54:12.825Z,15.36
2019-05-29T07:56:40.371Z,15.45
2019-05-29T07:59:07.471Z,15.38
2019-05-29T08:01:34.186Z,15.41
2019-05-29T08:04:00.915Z,15.64
2019-05-29T08:06:27.640Z,15.74
2019-05-29T08:08:54.368Z,15.51
2019-05-29T08:11:21.304Z,15.63
2019-05-29T08:13:48.143Z,15.83
2019-05-29T08:16:14.981Z,16.03
2019-05-29T08:18:46.132Z,16.26
2019-05-29T08:21:10.573Z,16.44
2019-05-29T08:23:38.277Z,16.44
2019-05-29T08:26:05.396Z,16.58
2019-05-29T08:28:32.251Z,16.55
2019-05-29T08:30:58.963Z,16.42
2019-05-29T08:33:25.809Z,16.45
2019-05-29T08:35:59.965Z,16.75
2019-05-29T08:38:21.619Z,17.04
2019-05-29T08:40:49.498Z,17.20
2019-05-29T08:43:16.762Z,17.36
2019-05-29T08:45:43.547Z,17.41
2019-05-29T08:48:10.288Z,16.81
2019-05-29T08:50:37.048Z,16.95
2019-05-29T08:53:03.812Z,17.30
2019-05-29T08:55:30.532Z,17.55
2019-05-29T08:57:57.298Z,17.67
2019-05-29T09:00:24.378Z,17.79
2019-05-29T09:02:51.284Z,17.87
2019-05-29T09:05:18.206Z,17.84
2019-05-29T09:07:46.423Z,17.98
2019-05-29T09:10:14.043Z,18.13
2019-05-29T09:12:40.818Z,18.18
2019-05-29T09:15:09.603Z,18.23
2019-05-29T09:17:36.732Z,18.24
2019-05-29T09:20:06.860Z,18.32
2019-05-29T09:22:33.581Z,18.65
2019-05-29T09:25:00.302Z,18.79
2019-05-29T09:27:27.051Z,18.64
2019-05-29T09:29:53.736Z,18.15
2019-05-29T09:32:40.756Z,18.42
2019-05-29T09:34:50.039Z,18.56
2019-05-29T09:37:17.426Z,18.29
2019-05-29T09:39:45.404Z,17.92
2019-05-29T09:42:12.424Z,18.24
2019-05-29T09:44:40.213Z,18.19
2019-05-29T09:47:07.118Z,18.47
2019-05-29T09:49:33.815Z,18.64
2019-05-29T09:52:01.016Z,18.71
2019-05-29T09:54:28.928Z,19.21
2019-05-29T09:56:56.846Z,19.68
2019-05-29T09:59:25.968Z,19.53
2019-05-29T10:01:54.092Z,19.34
2019-05-29T10:04:21.291Z,19.58
2019-05-29T10:06:48.006Z,18.65
2019-05-29T10:09:14.729Z,18.31
2019-05-29T10:11:41.475Z,18.16
2019-05-29T10:14:08.274Z,18.09
2019-05-29T10:16:35.867Z,17.79
2019-05-29T10:19:05.820Z,17.41
2019-05-29T10:21:40.264Z,17.53
2019-05-29T10:24:02.292Z,17.85
2019-05-29T10:26:29.999Z,17.65
2019-05-29T10:29:07.975Z,17.79
2019-05-29T10:31:25.565Z,18.29
2019-05-29T10:33:52.456Z,18.68
2019-05-29T10:36:19.121Z,18.50
2019-05-29T10:38:46.492Z,18.52
2019-05-29T10:41:13.648Z,18.69
2019-05-29T10:43:40.621Z,18.62
2019-05-29T10:46:07.364Z,18.62
2019-05-29T10:48:34.246Z,18.48
2019-05-29T10:51:04.818Z,18.61
2019-05-29T10:53:31.614Z,18.23
2019-05-29T10:55:58.356Z,18.30
2019-05-29T10:58:25.119Z,18.33
2019-05-29T11:00:53.229Z,18.40
2019-05-29T11:03:20.330Z,18.78
2019-05-29T11:05:47.552Z,19.39
2019-05-29T11:08:14.875Z,19.92
2019-05-29T11:10:41.718Z,20.16
2019-05-29T11:13:08.484Z,20.50
2019-05-29T11:15:35.851Z,20.39
2019-05-29T11:18:02.683Z,20.17
2019-05-29T11:20:29.396Z,20.55
2019-05-29T11:22:56.282Z,20.60
2019-05-29T11:25:27.912Z,20.67
2019-05-29T11:27:54.939Z,20.97
2019-05-29T11:30:21.632Z,21.07
2019-05-29T11:32:50.919Z,20.72
2019-05-29T11:35:17.956Z,20.33
2019-05-29T11:37:45.148Z,20.87
2019-05-29T11:40:12.916Z,21.28
2019-05-29T11:42:40.163Z,21.58
2019-05-29T11:45:37.906Z,21.62
2019-05-29T11:48:05.435Z,21.03
2019-05-29T11:50:32.318Z,20.39
2019-05-29T11:52:59.059Z,19.73
2019-05-29T11:55:26.297Z,19.38
2019-05-29T11:57:53.792Z,19.19
2019-05-29T12:00:23.695Z,19.18
2019-05-29T12:02:55.805Z,19.04
2019-05-29T12:05:22.872Z,19.13
2019-05-29T12:07:49.589Z,19.49
2019-05-29T12:10:16.463Z,19.85
2019-05-29T12:12:43.321Z,19.83
2019-05-29T12:15:14.836Z,19.55
2019-05-29T12:17:39.072Z,19.79
2019-05-29T12:20:26.421Z,19.90
2019-05-29T12:22:35.147Z,20.26
2019-05-29T12:25:03.002Z,20.20
2019-05-29T12:27:30.040Z,20.44
2019-05-29T12:29:56.857Z,20.66
2019-05-29T12:32:23.844Z,20.75
2019-05-29T12:34:53.479Z,20.91
2019-05-29T12:37:19.327Z,21.25
2019-05-29T12:39:46.060Z,21.55
2019-05-29T12:42:12.799Z,22.11
2019-05-29T12:44:39.885Z,22.52
2019-05-29T12:47:06.693Z,22.70
2019-05-29T12:49:33.617Z,22.84
2019-05-29T12:52:01.902Z,23.41
2019-05-29T12:54:28.970Z,23.66
2019-05-29T12:56:55.835Z,23.59
2019-05-29T12:59:22.590Z,23.27
2019-05-29T13:01:49.315Z,23.26
2019-05-29T13:04:16.081Z,23.32
2019-05-29T13:06:42.798Z,23.54
2019-05-29T13:09:09.619Z,22.66
2019-05-29T13:11:36.327Z,22.70
2019-05-29T13:14:03.077Z,22.93
2019-05-29T13:16:29.807Z,23.18
2019-05-29T13:18:57.018Z,22.81
2019-05-29T13:21:24.266Z,22.95
2019-05-29T13:23:51.072Z,22.75
2019-05-29T13:26:17.836Z,22.31
2019-05-29T13:28:45.062Z,23.06
2019-05-29T13:31:11.774Z,23.76
2019-05-29T13:33:38.731Z,24.18
2019-05-29T13:36:06.717Z,24.58
2019-05-29T13:38:34.086Z,24.83
2019-05-29T13:41:02.312Z,25.06
2019-05-29T13:43:29.413Z,24.80
2019-05-29T13:45:56.333Z,24.38
2019-05-29T13:48:23.584Z,24.23
2019-05-29T13:50:51.066Z,23.67
2019-05-29T13:53:17.868Z,23.33
2019-05-29T13:55:44.540Z,23.02
2019-05-29T13:58:11.265Z,23.93
2019-05-29T14:00:38.023Z,24.80
2019-05-29T14:03:05.037Z,25.16
2019-05-29T14:05:33.967Z,25.46
2019-05-29T14:08:01.128Z,25.78
2019-05-29T14:10:28.268Z,26.00
2019-05-29T14:12:55.050Z,26.35
2019-05-29T14:15:21.768Z,26.49
2019-05-29T14:17:48.550Z,26.43
2019-05-29T14:20:15.913Z,26.84
2019-05-29T14:22:42.638Z,26.69
2019-05-29T14:25:14.298Z,26.47
2019-05-29T14:27:41.667Z,25.97
2019-05-29T14:30:10.303Z,25.75
2019-05-29T14:32:37.296Z,25.34
2019-05-29T14:35:05.602Z,25.18
2019-05-29T14:37:32.779Z,24.77
2019-05-29T14:39:59.566Z,24.56
2019-05-29T14:42:26.304Z,24.19
2019-05-29T14:44:53.041Z,24.02
2019-05-29T14:47:19.748Z,23.81
2019-05-29T14:49:46.482Z,23.99
2019-05-29T14:52:13.445Z,23.94
2019-05-29T14:54:42.132Z,23.60
2019-05-29T14:57:21.600Z,23.68
2019-05-29T14:59:37.926Z,23.59
2019-05-29T15:02:07.544Z,23.04
2019-05-29T15:04:33.361Z,22.87
2019-05-29T15:07:00.415Z,22.79
2019-05-29T15:09:27.141Z,22.88
2019-05-29T15:11:53.845Z,22.76
2019-05-29T15:14:20.560Z,22.93
2019-05-29T15:16:47.282Z,23.03
2019-05-29T15:19:15.244Z,23.01
2019-05-29T15:21:42.481Z,22.93
2019-05-29T15:24:09.519Z,23.20
2019-05-29T15:26:36.441Z,23.10
2019-05-29T15:29:03.615Z,23.05
2019-05-29T15:31:30.364Z,22.93
2019-05-29T15:33:57.104Z,22.26
2019-05-29T15:36:23.966Z,22.30
2019-05-29T15:38:50.701Z,22.07
2019-05-29T15:41:17.419Z,22.07
2019-05-29T15:43:44.187Z,22.30
2019-05-29T15:46:12.137Z,22.24
2019-05-29T15:48:41.085Z,22.28
2019-05-29T15:51:08.810Z,22.40
2019-05-29T15:53:36.081Z,22.41
2019-05-29T15:56:16.985Z,22.40
2019-05-29T15:58:31.661Z,22.31
2019-05-29T16:00:58.838Z,22.39
2019-05-29T16:03:25.545Z,22.31
2019-05-29T16:05:52.355Z,22.32
2019-05-29T16:08:19.363Z,22.24
2019-05-29T16:10:46.139Z,22.31
2019-05-29T16:13:15.045Z,22.36
2019-05-29T16:15:42.459Z,22.40
2019-05-29T16:18:19.849Z,22.25
2019-05-29T16:20:39.809Z,22.12
2019-05-29T16:23:06.510Z,22.12
2019-05-29T16:25:40.232Z,21.99
2019-05-29T16:28:01.874Z,21.98
2019-05-29T16:30:29.421Z,21.96
2019-05-29T16:32:56.239Z,21.86
2019-05-29T16:35:24.112Z,21.74
2019-05-29T16:37:51.411Z,21.85
2019-05-29T16:40:18.354Z,21.70
2019-05-29T16:42:45.054Z,21.59
2019-05-29T16:45:12.225Z,21.62
2019-05-29T16:47:39.442Z,21.43
2019-05-29T16:50:07.750Z,21.34
2019-05-29T16:52:34.602Z,21.20
2019-05-29T16:55:01.451Z,21.13
2019-05-29T16:57:28.939Z,21.01
2019-05-29T16:59:57.373Z,21.02
2019-05-29T17:02:24.118Z,20.95
2019-05-29T17:04:51.296Z,21.08
2019-05-29T17:07:20.144Z,20.85
2019-05-29T17:09:46.849Z,20.76
2019-05-29T17:12:14.664Z,20.61
2019-05-29T17:14:41.489Z,20.44
2019-05-29T17:17:08.373Z,20.23
2019-05-29T17:19:35.142Z,20.02
2019-05-29T17:22:03.168Z,19.85
2019-05-29T17:24:29.877Z,19.84
2019-05-29T17:26:56.933Z,19.56
2019-05-29T17:29:24.950Z,19.43
2019-05-29T17:31:52.375Z,19.14
2019-05-29T17:34:19.099Z,19.22
2019-05-29T17:36:45.814Z,19.33
2019-05-29T17:39:12.743Z,19.30
2019-05-29T17:41:41.109Z,19.04
2019-05-29T17:44:07.882Z,18.94
2019-05-29T17:46:34.593Z,18.98
2019-05-29T17:49:01.304Z,18.97
2019-05-29T17:51:28.157Z,18.93
2019-05-29T17:53:54.920Z,19.06
2019-05-29T17:56:32.275Z,19.03
2019-05-29T17:58:50.277Z,18.90
2019-05-29T18:01:18.201Z,18.77
2019-05-29T18:03:45.141Z,18.78
2019-05-29T18:06:11.839Z,18.64
2019-05-29T18:08:38.574Z,18.68
2019-05-29T18:11:05.277Z,18.56
2019-05-29T18:13:32.034Z,18.63
2019-05-29T18:15:58.794Z,18.61
2019-05-29T18:18:25.802Z,18.54
2019-05-29T18:20:52.745Z,18.46
2019-05-29T18:23:19.964Z,18.44
2019-05-29T18:25:47.226Z,18.42
2019-05-29T18:28:14.340Z,18.43
2019-05-29T18:30:41.080Z,18.40
2019-05-29T18:33:07.841Z,18.48
2019-05-29T18:35:34.582Z,18.44
2019-05-29T18:38:01.361Z,18.46
2019-05-29T18:40:28.432Z,18.39
2019-05-29T18:42:55.348Z,18.38
2019-05-29T18:45:24.312Z,18.29
2019-05-29T18:47:50.863Z,18.21
2019-05-29T18:50:17.610Z,18.11
2019-05-29T18:52:44.649Z,18.08
2019-05-29T18:55:11.481Z,18.01
2019-05-29T18:57:38.343Z,18.04
2019-05-29T19:00:05.201Z,18.04
2019-05-29T19:02:31.950Z,18.03
2019-05-29T19:04:58.783Z,18.04
2019-05-29T19:07:25.801Z,18.14
2019-05-29T19:09:55.015Z,18.17
2019-05-29T19:12:21.813Z,18.12
2019-05-29T19:14:48.462Z,18.07
2019-05-29T19:17:15.558Z,18.01
2019-05-29T19:19:42.220Z,18.02
2019-05-29T19:22:10.081Z,17.98
2019-05-29T19:24:36.859Z,17.98
2019-05-29T19:27:03.807Z,17.93
2019-05-29T19:29:31.171Z,17.84
2019-05-29T19:31:58.512Z,17.85
2019-05-29T19:34:25.327Z,17.76
2019-05-29T19:36:52.053Z,17.78
2019-05-29T19:39:18.895Z,17.75
2019-05-29T19:41:45.721Z,17.69
2019-05-29T19:44:12.838Z,17.70
2019-05-29T19:46:53.092Z,17.61
2019-05-29T19:49:08.297Z,17.58
2019-05-29T19:51:35.510Z,17.52
2019-05-29T19:54:02.405Z,17.48
2019-05-29T19:56:29.696Z,17.43
2019-05-29T19:58:56.374Z,17.37
2019-05-29T20:01:31.695Z,17.27
2019-05-29T20:03:51.748Z,17.20
2019-05-29T20:06:18.833Z,17.24
2019-05-29T20:08:45.549Z,17.19
2019-05-29T20:11:12.615Z,17.11
2019-05-29T20:13:39.315Z,17.13
2019-05-29T20:16:06.067Z,17.10
2019-05-29T20:18:34.072Z,17.08
2019-05-29T20:21:00.998Z,17.01
2019-05-29T20:23:28.601Z,16.93
2019-05-29T20:25:55.428Z,16.78
2019-05-29T20:28:22.167Z,16.77
2019-05-29T20:30:48.913Z,16.79
2019-05-29T20:33:15.648Z,16.73
2019-05-29T20:35:43.173Z,16.62
2019-05-29T20:38:10.084Z,16.44
2019-05-29T20:40:37.347Z,16.36
2019-05-29T20:43:04.275Z,16.16
2019-05-29T20:45:33.678Z,16.19
2019-05-29T20:48:00.928Z,16.15
2019-05-29T20:50:27.687Z,16.19
2019-05-29T20:52:56.002Z,16.10
2019-05-29T20:55:22.712Z,15.99
2019-05-29T20:57:50.806Z,15.87
2019-05-29T21:00:18.721Z,15.80
2019-05-29T21:02:45.438Z,15.76
2019-05-29T21:05:12.193Z,15.71
2019-05-29T21:07:38.950Z,15.80
2019-05-29T21:10:06.380Z,15.63
2019-05-29T21:12:37.507Z,15.68
2019-05-29T21:15:05.596Z,15.67
2019-05-29T21:17:33.602Z,15.55
2019-05-29T21:20:00.472Z,15.50
2019-05-29T21:22:27.224Z,15.49
2019-05-29T21:25:02.654Z,15.41
2019-05-29T21:27:23.352Z,15.39
2019-05-29T21:29:50.104Z,15.34
2019-05-29T21:32:17.165Z,15.46
2019-05-29T21:34:44.035Z,15.48
2019-05-29T21:37:10.705Z,15.46
2019-05-29T21:39:38.335Z,15.45
2019-05-29T21:42:05.450Z,15.41
2019-05-29T21:44:32.305Z,15.35
2019-05-29T21:47:00.071Z,15.21
2019-05-29T21:49:26.896Z,15.18
2019-05-29T21:51:53.745Z,14.88
2019-05-29T21:54:20.473Z,14.91
2019-05-29T21:56:47.905Z,14.78
2019-05-29T21:59:14.854Z,14.81
2019-05-29T22:01:42.081Z,14.88
2019-05-29T22:04:09.178Z,14.90
2019-05-29T22:06:35.934Z,14.84
2019-05-29T22:09:04.316Z,14.80
2019-05-29T22:11:31.012Z,14.71
2019-05-29T22:13:58.535Z,14.67
2019-05-29T22:16:25.342Z,14.63
2019-05-29T22:18:52.790Z,14.63
2019-05-29T22:21:20.224Z,14.54
2019-05-29T22:23:46.932Z,14.61
2019-05-29T22:26:13.750Z,14.63
2019-05-29T22:28:40.550Z,14.59
2019-05-29T22:31:07.261Z,14.56
2019-05-29T22:33:34.248Z,14.59
2019-05-29T22:36:01.698Z,14.52
2019-05-29T22:38:31.826Z,14.38
2019-05-29T22:40:59.689Z,14.40
2019-05-29T22:43:26.403Z,14.38
2019-05-29T22:45:53.607Z,14.23
2019-05-29T22:48:20.452Z,14.27
2019-05-29T22:50:47.190Z,14.30
2019-05-29T22:53:14.215Z,14.35
2019-05-29T22:55:40.940Z,14.26
2019-05-29T22:58:07.630Z,14.21
2019-05-29T23:00:34.445Z,14.27
2019-05-29T23:03:02.420Z,14.20
2019-05-29T23:05:29.196Z,14.20
2019-05-29T23:07:56.130Z,14.09
2019-05-29T23:10:22.937Z,14.05
2019-05-29T23:12:49.782Z,14.10
2019-05-29T23:15:16.842Z,14.11
2019-05-29T23:17:43.584Z,14.08
2019-05-29T23:20:10.300Z,14.01
2019-05-29T23:22:37.003Z,13.88
2019-05-29T23:25:03.829Z,13.91
2019-05-29T23:27:33.722Z,13.92
2019-05-29T23:30:01.079Z,14.01
2019-05-29T23:32:28.107Z,13.89
2019-05-29T23:34:55.095Z,13.77
2019-05-29T23:37:21.930Z,13.69
2019-05-29T23:39:48.958Z,13.66
2019-05-29T23:42:15.653Z,13.74
2019-05-29T23:44:42.347Z,13.45
2019-05-29T23:47:09.374Z,13.48
2019-05-29T23:49:36.101Z,13.47
2019-05-29T23:52:04.523Z,13.50
2019-05-29T23:54:31.425Z,13.64
2019-05-29T23:56:58.152Z,13.68
2019-05-29T23:59:24.997Z,13.55
